Accueil
METAR-TAF:

METAR-TAF

Aéroports :

Aéroport Guadeloupe - Pôle Caraïbes

Pointe-à-Pitre, Guadeloupe

latitude: 16-16N, longitude: 061-31W, altitude: 11 m

Observation

Le bulletin a été fait il y a 19 minutes, à 13:30 UTC
Vent 8 kt de est/nord-est, variant entre nord-est et est
Température 27°C
Humidité 62%
Pression 1016 hPa
Visibilité 10 km ou plus
Ciel couvert à une hauteur de 3900 ft

METAR: TFFR 101330Z AUTO 07008KT 040V100 9999 OVC039 27/19 Q1016 NOSIG

Heure: 09:49 (13:49 UTC)

Prévision

Le bulletin a été fait il y a 2 heures et 49 minutes, à 11:00 UTC
Prévision valable du 10 à 12 UTC au 11 à 12 UTC
Vent 8 kt de est/nord-est
Visibilité 10 km ou plus
Nuages épars à une hauteur de 2500 ft
Nuages épars à une hauteur de 4000 ft
Probabilité 40% :
Temporairement
du 11 à 00 UTC au 11 à 10 UTC
Vent 2 kt de direction variable

TAF: TFFR 101100Z 1012/1112 07008KT 9999 SCT025 SCT040 PROB40 TEMPO 1100/1110 VRB02KT

Observations et prévisions météorologiques de plus de 4000 aéroports (messages METAR et TAF).

Les stations disponibles sont représentées par des disques jaunes et rouges sur la carte.

Passer la souris dessus pour voir le nom de la station.

Cliquer dessus pour voir les observations et prévisions météorologiques.

Pour changer de carte: cliquez sur les boutons verts avec une croix noire pour zoomer, sur le bouton vert avec un tiret pour effectuer un zoom arrière, ou sur les flèches vertes pour les cartes adjacentes.


METAR-TAF: